Time;durP1;ratioP1;P1;durP2;ratioP2;P2;SDS_P1;SDS_P2;PMS_P1;PMS_P2;Temp;Humidity;BMP_temperature;BMP_pressure;BME280_temperature;BME280_humidity;BME280_pressure;Samples;Min_cycle;Max_cycle;Signal;HPM_P1;HPM_P2
2021/09/13 00:00:01;;;;;;;9.55;8.40;;;17.20;99.90;;;;;;5073833;28;20295;-56
2021/09/13 00:02:30;;;;;;;11.38;9.50;;;17.20;99.90;;;;;;5073555;28;20219;-58
2021/09/13 00:04:58;;;;;;;9.82;8.82;;;17.20;99.90;;;;;;5073707;28;20223;-59
2021/09/13 00:07:26;;;;;;;9.48;8.48;;;17.20;99.90;;;;;;5073266;28;20225;-57
2021/09/13 00:09:55;;;;;;;11.05;9.18;;;17.20;99.90;;;;;;5073387;28;20296;-57
2021/09/13 00:12:23;;;;;;;11.75;9.48;;;17.20;99.90;;;;;;5073717;28;20204;-58
2021/09/13 00:14:51;;;;;;;10.30;9.15;;;17.20;99.90;;;;;;5073497;28;20203;-58
2021/09/13 00:17:18;;;;;;;12.57;8.90;;;17.10;99.90;;;;;;5073677;28;20315;-59
2021/09/13 00:19:46;;;;;;;10.20;8.50;;;17.10;99.90;;;;;;5073546;28;20200;-58
2021/09/13 00:22:14;;;;;;;9.70;8.48;;;17.10;99.90;;;;;;5073043;28;20311;-56
2021/09/13 00:24:42;;;;;;;9.55;8.45;;;17.00;99.90;;;;;;5072774;28;20204;-59
2021/09/13 00:27:11;;;;;;;11.93;9.35;;;17.00;99.90;;;;;;5072915;28;20291;-58
2021/09/13 00:29:39;;;;;;;11.63;10.00;;;17.00;99.90;;;;;;5072960;28;20883;-58
2021/09/13 00:32:07;;;;;;;12.68;9.15;;;17.00;99.90;;;;;;5073332;28;20670;-58
2021/09/13 00:34:36;;;;;;;10.38;8.68;;;17.00;99.90;;;;;;5073256;28;20204;-58
2021/09/13 00:37:04;;;;;;;10.02;8.68;;;17.00;99.90;;;;;;5072980;28;20201;-58
2021/09/13 00:39:32;;;;;;;9.20;8.10;;;17.00;99.90;;;;;;5072032;28;20200;-58
2021/09/13 00:42:00;;;;;;;10.77;9.27;;;17.00;99.90;;;;;;5072778;28;20311;-58
2021/09/13 00:44:29;;;;;;;11.48;9.15;;;17.00;99.90;;;;;;5072785;28;20741;-56
2021/09/13 00:46:59;;;;;;;10.57;9.07;;;17.00;99.90;;;;;;5072987;28;20308;-59
2021/09/13 00:49:27;;;;;;;9.85;8.40;;;17.00;99.90;;;;;;5072775;28;20649;-59
2021/09/13 00:51:55;;;;;;;11.85;9.18;;;17.00;99.90;;;;;;5072834;28;20196;-59
2021/09/13 00:54:23;;;;;;;10.82;9.18;;;17.00;99.90;;;;;;5072695;28;20235;-58
2021/09/13 00:56:51;;;;;;;10.65;8.57;;;17.00;99.90;;;;;;5072624;28;20291;-58
2021/09/13 00:59:19;;;;;;;11.75;9.15;;;17.00;99.90;;;;;;5072873;28;20204;-59
2021/09/13 01:01:48;;;;;;;10.75;9.15;;;17.00;99.90;;;;;;5072732;28;20223;-58
2021/09/13 01:04:16;;;;;;;9.98;8.95;;;16.90;99.90;;;;;;5072877;28;20197;-58
2021/09/13 01:06:44;;;;;;;11.23;9.05;;;16.90;99.90;;;;;;5072548;28;20236;-56
2021/09/13 01:09:12;;;;;;;10.68;8.43;;;16.90;99.90;;;;;;5072558;28;20201;-59
2021/09/13 01:11:40;;;;;;;10.07;8.98;;;16.90;99.90;;;;;;5072760;28;20197;-58
2021/09/13 01:14:08;;;;;;;12.35;9.20;;;16.80;99.90;;;;;;5072825;28;20200;-57
2021/09/13 01:16:35;;;;;;;10.73;9.00;;;16.80;99.90;;;;;;5073021;28;20236;-59
2021/09/13 01:19:05;;;;;;;11.38;8.90;;;16.80;99.90;;;;;;5072959;28;20291;-59
2021/09/13 01:21:33;;;;;;;11.02;9.07;;;16.90;99.90;;;;;;5072733;28;20228;-57
2021/09/13 01:24:03;;;;;;;10.63;8.38;;;16.90;99.90;;;;;;5072609;28;20201;-60
2021/09/13 01:26:30;;;;;;;10.63;8.32;;;16.90;99.90;;;;;;5072657;28;20200;-61
2021/09/13 01:28:58;;;;;;;9.35;8.02;;;17.00;99.90;;;;;;5072755;28;20197;-57
2021/09/13 01:31:26;;;;;;;9.40;8.15;;;16.90;99.90;;;;;;5072567;28;20291;-58
2021/09/13 01:33:54;;;;;;;9.73;8.13;;;16.90;99.90;;;;;;5072231;28;20207;-58
2021/09/13 01:36:22;;;;;;;10.60;8.23;;;16.90;99.90;;;;;;5072520;28;20218;-58
2021/09/13 01:38:50;;;;;;;10.50;8.45;;;16.90;99.90;;;;;;5064141;28;20303;-58
2021/09/13 01:41:19;;;;;;;11.73;8.60;;;16.90;99.90;;;;;;5072242;28;20206;-58
2021/09/13 01:43:47;;;;;;;11.25;8.43;;;16.90;99.90;;;;;;5072230;28;20292;-58
2021/09/13 01:46:15;;;;;;;9.00;7.93;;;16.90;99.90;;;;;;5072262;28;20220;-57
2021/09/13 01:48:43;;;;;;;11.30;7.90;;;16.90;99.90;;;;;;5072442;28;20211;-58
2021/09/13 01:51:11;;;;;;;10.25;8.48;;;16.90;99.90;;;;;;5073792;28;20288;-58
2021/09/13 01:53:38;;;;;;;11.20;8.32;;;16.90;99.90;;;;;;5075874;28;20232;-58
2021/09/13 01:56:06;;;;;;;8.98;7.38;;;16.90;99.90;;;;;;5075888;28;20220;-59
2021/09/13 01:58:35;;;;;;;9.10;7.82;;;16.90;99.90;;;;;;5076210;28;20205;-57
2021/09/13 02:01:03;;;;;;;9.75;7.63;;;16.90;99.90;;;;;;5076179;28;20211;-57
2021/09/13 02:03:31;;;;;;;9.35;8.40;;;16.90;99.90;;;;;;5075738;28;20788;-58
2021/09/13 02:05:59;;;;;;;9.50;7.75;;;16.90;99.90;;;;;;5075307;28;20225;-57
2021/09/13 02:08:27;;;;;;;10.65;8.32;;;16.80;99.90;;;;;;5075578;28;20575;-57
2021/09/13 02:10:55;;;;;;;10.32;8.35;;;16.80;99.90;;;;;;5075860;28;20211;-58
2021/09/13 02:13:23;;;;;;;9.63;8.30;;;16.80;99.90;;;;;;5075732;28;20197;-57
2021/09/13 02:15:52;;;;;;;10.38;8.55;;;16.80;99.90;;;;;;5075897;28;20224;-58
2021/09/13 02:18:19;;;;;;;9.15;7.90;;;16.90;99.90;;;;;;5075575;28;20204;-58
2021/09/13 02:20:47;;;;;;;10.73;8.38;;;16.90;99.90;;;;;;5075503;28;20211;-58
2021/09/13 02:23:15;;;;;;;10.13;8.73;;;16.90;99.90;;;;;;5075363;28;20675;-57
2021/09/13 02:25:43;;;;;;;11.77;9.38;;;16.90;99.90;;;;;;5075305;28;20212;-59
2021/09/13 02:28:11;;;;;;;10.65;8.50;;;16.90;99.90;;;;;;5075809;28;20197;-59
2021/09/13 02:30:39;;;;;;;11.25;8.70;;;16.80;99.90;;;;;;5075288;28;20544;-59
2021/09/13 02:33:08;;;;;;;10.63;8.55;;;16.80;99.90;;;;;;5075575;28;20199;-58
2021/09/13 02:35:36;;;;;;;9.27;8.02;;;16.90;99.90;;;;;;5075557;28;20196;-57
2021/09/13 02:38:04;;;;;;;10.50;8.50;;;16.90;99.90;;;;;;5075455;28;20238;-59
2021/09/13 02:40:32;;;;;;;7.95;7.15;;;16.80;99.90;;;;;;5074962;28;20236;-58
2021/09/13 02:43:00;;;;;;;10.68;8.40;;;16.80;99.90;;;;;;5075066;28;20620;-58
2021/09/13 02:45:28;;;;;;;9.45;8.40;;;16.80;99.90;;;;;;5075159;28;20211;-58
2021/09/13 02:47:56;;;;;;;9.50;7.25;;;16.80;99.90;;;;;;5075210;28;20211;-57
2021/09/13 02:50:25;;;;;;;10.88;7.90;;;16.80;99.90;;;;;;5075382;28;20303;-58
2021/09/13 02:52:53;;;;;;;8.18;7.25;;;16.80;99.90;;;;;;5075306;28;20208;-59
2021/09/13 02:55:21;;;;;;;9.07;7.82;;;16.80;99.90;;;;;;5075053;28;20203;-57
2021/09/13 02:57:49;;;;;;;9.10;8.07;;;16.80;99.90;;;;;;5075120;28;20224;-58
2021/09/13 03:00:17;;;;;;;8.63;7.40;;;16.80;99.90;;;;;;5074970;28;20205;-58
2021/09/13 03:02:45;;;;;;;9.68;7.40;;;16.80;99.90;;;;;;5074119;28;20217;-58
2021/09/13 03:05:13;;;;;;;9.77;7.68;;;16.80;99.90;;;;;;5075028;28;20200;-58
2021/09/13 03:07:42;;;;;;;10.05;8.65;;;16.70;99.90;;;;;;5074448;28;20267;-58
2021/09/13 03:10:11;;;;;;;11.60;9.07;;;16.70;99.90;;;;;;5074654;28;20204;-58
2021/09/13 03:12:40;;;;;;;11.35;8.98;;;16.60;99.90;;;;;;5074981;28;20288;-55
2021/09/13 03:15:09;;;;;;;10.45;9.02;;;16.50;99.90;;;;;;5074804;28;20295;-58
2021/09/13 03:17:39;;;;;;;14.68;9.80;;;16.40;99.90;;;;;;5074439;28;20287;-58
2021/09/13 03:20:08;;;;;;;10.98;8.93;;;16.40;99.90;;;;;;5074841;28;20205;-57
2021/09/13 03:22:36;;;;;;;11.00;8.98;;;16.30;99.90;;;;;;5074372;28;20867;-57
2021/09/13 03:25:06;;;;;;;12.07;9.80;;;16.20;99.90;;;;;;5074197;28;20236;-58
2021/09/13 03:27:35;;;;;;;10.63;9.18;;;16.10;99.90;;;;;;5074460;28;20189;-58
2021/09/13 03:30:04;;;;;;;12.80;9.93;;;16.10;99.90;;;;;;5074563;28;20201;-56
2021/09/13 03:32:32;;;;;;;11.15;9.52;;;16.00;99.90;;;;;;5074221;28;20203;-58
2021/09/13 03:35:00;;;;;;;11.23;9.02;;;16.00;99.90;;;;;;5074346;28;20291;-59
2021/09/13 03:37:28;;;;;;;14.23;9.45;;;16.00;99.90;;;;;;5074393;28;20224;-56
2021/09/13 03:39:56;;;;;;;12.38;9.60;;;16.00;99.90;;;;;;5074045;28;20296;-58
2021/09/13 03:42:25;;;;;;;11.85;9.40;;;16.00;99.90;;;;;;5073972;28;20297;-56
2021/09/13 03:44:53;;;;;;;12.30;9.93;;;16.00;99.90;;;;;;5074135;28;20223;-55
2021/09/13 03:47:20;;;;;;;10.85;9.23;;;16.10;99.90;;;;;;5074222;28;20283;-56
2021/09/13 03:49:48;;;;;;;12.88;9.40;;;16.10;99.90;;;;;;5065905;28;20201;-57
2021/09/13 03:52:16;;;;;;;11.50;9.05;;;16.10;99.90;;;;;;5074106;28;20663;-57
2021/09/13 03:54:44;;;;;;;11.23;9.10;;;16.10;99.90;;;;;;5073781;28;20291;-56
2021/09/13 03:57:12;;;;;;;11.10;9.38;;;16.10;99.90;;;;;;5073952;28;20205;-57
2021/09/13 03:59:41;;;;;;;11.50;9.65;;;16.00;99.90;;;;;;5074010;28;20201;-57
2021/09/13 04:02:09;;;;;;;10.52;9.20;;;16.00;99.90;;;;;;5073642;28;20203;-57
2021/09/13 04:04:37;;;;;;;13.65;9.40;;;16.00;99.90;;;;;;5073964;28;20225;-58
2021/09/13 04:07:14;;;;;;;12.95;8.70;;;15.90;99.90;;;;;;5073428;28;20233;-58
2021/09/13 04:10:00;;;;;;;11.85;9.52;;;15.80;99.90;;;;;;5073681;28;20188;-57
2021/09/13 04:12:28;;;;;;;11.23;9.68;;;15.70;99.90;;;;;;5073566;28;20647;-56
2021/09/13 04:14:57;;;;;;;12.85;9.98;;;15.70;99.90;;;;;;5072613;28;20204;-58
2021/09/13 04:17:25;;;;;;;14.15;10.95;;;15.70;99.90;;;;;;5073674;28;20250;-57
2021/09/13 04:19:53;;;;;;;12.32;9.95;;;15.60;99.90;;;;;;5073326;28;20201;-58
2021/09/13 04:22:20;;;;;;;12.98;9.77;;;15.50;99.90;;;;;;5073520;28;20228;-57
2021/09/13 04:24:48;;;;;;;13.05;10.10;;;15.50;99.90;;;;;;5073108;28;20311;-57
2021/09/13 04:27:16;;;;;;;13.82;10.00;;;15.40;99.90;;;;;;5073559;28;20559;-57
2021/09/13 04:29:44;;;;;;;13.98;10.90;;;15.40;99.90;;;;;;5073389;28;20208;-58
2021/09/13 04:32:13;;;;;;;16.50;10.68;;;15.40;99.90;;;;;;5073033;28;20524;-57
2021/09/13 04:34:41;;;;;;;12.38;10.25;;;15.40;99.90;;;;;;5072955;28;20207;-57
2021/09/13 04:37:09;;;;;;;12.93;10.23;;;15.40;99.90;;;;;;5073276;28;20292;-57
2021/09/13 04:39:37;;;;;;;13.80;10.50;;;15.40;99.90;;;;;;5072766;28;20723;-57
2021/09/13 04:42:05;;;;;;;17.77;11.65;;;15.30;99.90;;;;;;5073003;28;20204;-59
2021/09/13 04:44:32;;;;;;;14.50;10.45;;;15.30;99.90;;;;;;5072911;28;20220;-57
2021/09/13 04:47:00;;;;;;;13.23;10.13;;;15.30;99.90;;;;;;5073008;28;20672;-59
2021/09/13 04:49:29;;;;;;;15.30;10.52;;;15.30;99.90;;;;;;5073193;28;20204;-57
2021/09/13 04:51:57;;;;;;;12.38;10.32;;;15.30;99.90;;;;;;5073104;28;20196;-57
2021/09/13 04:54:25;;;;;;;13.52;10.68;;;15.40;99.90;;;;;;5072485;28;20296;-58
2021/09/13 04:56:53;;;;;;;12.00;9.95;;;15.50;99.90;;;;;;5073138;28;20659;-57
2021/09/13 04:59:21;;;;;;;16.52;10.82;;;15.50;99.90;;;;;;5072696;28;20643;-55
2021/09/13 05:01:49;;;;;;;11.88;10.23;;;15.50;99.90;;;;;;5073062;28;20210;-58
2021/09/13 05:04:17;;;;;;;12.05;9.95;;;15.60;99.90;;;;;;5072423;28;20221;-58
2021/09/13 05:06:46;;;;;;;13.30;9.93;;;15.70;99.90;;;;;;5072188;28;20233;-58
2021/09/13 05:09:14;;;;;;;14.23;9.98;;;15.70;99.90;;;;;;5072376;28;20556;-58
2021/09/13 05:11:42;;;;;;;13.88;9.80;;;15.80;99.90;;;;;;5072420;28;20223;-56
2021/09/13 05:14:11;;;;;;;11.80;9.55;;;15.90;99.90;;;;;;5072796;28;20570;-58
2021/09/13 05:16:39;;;;;;;13.00;9.68;;;15.90;99.90;;;;;;5072401;28;20231;-59
2021/09/13 05:19:07;;;;;;;11.88;9.25;;;16.00;99.90;;;;;;5072530;28;20196;-59
2021/09/13 05:21:38;;;;;;;11.65;8.93;;;16.10;99.90;;;;;;5072654;28;20207;-58
2021/09/13 05:24:07;;;;;;;11.43;8.57;;;16.20;99.90;;;;;;5072185;28;20205;-58
2021/09/13 05:26:35;;;;;;;12.27;8.63;;;16.30;99.90;;;;;;5071487;28;20236;-58
2021/09/13 05:29:03;;;;;;;12.02;9.00;;;16.30;99.90;;;;;;5072426;28;20196;-57
2021/09/13 05:31:31;;;;;;;10.43;8.77;;;16.30;99.90;;;;;;5072454;28;20234;-57
2021/09/13 05:33:59;;;;;;;13.07;9.30;;;16.30;99.90;;;;;;5072390;28;20207;-57
2021/09/13 05:36:27;;;;;;;10.50;9.40;;;16.30;99.90;;;;;;5072322;28;20258;-58
2021/09/13 05:38:54;;;;;;;12.15;9.63;;;16.40;99.90;;;;;;5071935;28;20295;-57
2021/09/13 05:41:24;;;;;;;10.77;8.65;;;16.40;99.90;;;;;;5071839;28;20204;-57
2021/09/13 05:43:51;;;;;;;12.18;10.20;;;16.50;99.90;;;;;;5072011;28;20564;-57
2021/09/13 05:46:19;;;;;;;13.32;10.57;;;16.50;99.90;;;;;;5072323;28;20209;-57
2021/09/13 05:48:47;;;;;;;11.50;9.82;;;16.50;99.90;;;;;;5072013;28;20211;-58
2021/09/13 05:51:15;;;;;;;13.43;9.85;;;16.60;99.90;;;;;;5072330;28;20201;-56
2021/09/13 05:53:43;;;;;;;12.35;9.77;;;16.60;99.90;;;;;;5072085;28;20339;-57
2021/09/13 05:56:11;;;;;;;13.63;10.25;;;16.60;99.90;;;;;;5071644;28;20201;-56
2021/09/13 05:58:40;;;;;;;12.98;10.48;;;16.60;99.90;;;;;;5072416;28;20287;-55
2021/09/13 06:01:08;;;;;;;12.10;9.85;;;16.60;99.90;;;;;;5072558;28;20207;-55
2021/09/13 06:03:36;;;;;;;13.73;10.38;;;16.70;99.90;;;;;;5072259;28;20204;-58
2021/09/13 06:06:04;;;;;;;13.88;10.55;;;16.70;99.90;;;;;;5077045;28;20236;-57
2021/09/13 06:08:32;;;;;;;10.75;9.43;;;16.80;99.90;;;;;;5092188;28;20236;-58
2021/09/13 06:11:00;;;;;;;11.27;9.38;;;16.80;99.90;;;;;;5091856;28;20210;-57
2021/09/13 06:13:28;;;;;;;10.52;9.18;;;16.80;99.90;;;;;;5092153;28;20208;-57
2021/09/13 06:15:57;;;;;;;15.43;10.57;;;16.90;99.90;;;;;;5092231;28;20526;-58
2021/09/13 06:18:36;;;;;;;10.68;9.57;;;16.90;99.90;;;;;;5092539;28;20188;-56
2021/09/13 06:21:04;;;;;;;11.07;9.40;;;17.00;99.90;;;;;;5087956;28;20334;-58
2021/09/13 06:23:32;;;;;;;10.50;9.40;;;17.10;99.90;;;;;;5091993;28;20676;-56
2021/09/13 06:26:00;;;;;;;12.27;10.80;;;17.20;99.90;;;;;;5092094;28;20212;-57
2021/09/13 06:28:28;;;;;;;11.45;10.25;;;17.20;99.90;;;;;;5092196;28;20291;-58
2021/09/13 06:30:57;;;;;;;11.50;10.32;;;17.30;99.90;;;;;;5091950;28;20290;-57
2021/09/13 06:33:25;;;;;;;12.77;10.82;;;17.30;99.90;;;;;;5092326;28;20225;-56
2021/09/13 06:35:53;;;;;;;12.65;10.38;;;17.50;99.90;;;;;;5092096;28;20299;-57
2021/09/13 06:38:21;;;;;;;11.20;9.63;;;17.60;99.90;;;;;;5093132;28;20702;-57
2021/09/13 06:40:48;;;;;;;13.60;10.40;;;17.70;99.90;;;;;;5095602;28;20295;-57
2021/09/13 06:43:18;;;;;;;11.98;10.77;;;17.80;99.90;;;;;;5095810;28;20203;-57
2021/09/13 06:45:46;;;;;;;15.90;12.40;;;17.90;99.90;;;;;;5095252;28;20219;-58
2021/09/13 06:48:16;;;;;;;12.20;11.00;;;18.10;99.90;;;;;;5095194;28;20667;-56
2021/09/13 06:50:45;;;;;;;13.50;11.45;;;18.10;99.90;;;;;;5095707;28;20808;-59
2021/09/13 06:53:12;;;;;;;12.07;10.55;;;18.30;99.90;;;;;;5095450;28;20297;-57
2021/09/13 06:55:41;;;;;;;14.18;10.50;;;18.40;99.90;;;;;;5095491;28;20208;-58
2021/09/13 06:58:10;;;;;;;15.57;11.85;;;18.40;99.90;;;;;;5095554;28;20219;-57
2021/09/13 07:00:38;;;;;;;11.68;10.55;;;18.50;99.90;;;;;;5095180;28;20200;-57
2021/09/13 07:03:07;;;;;;;12.32;10.98;;;18.50;99.90;;;;;;5095414;28;20212;-56
2021/09/13 07:05:37;;;;;;;13.73;11.50;;;18.60;99.90;;;;;;5095169;28;20247;-58
2021/09/13 07:08:05;;;;;;;11.15;10.05;;;18.60;99.90;;;;;;5095242;28;20272;-56
2021/09/13 07:10:33;;;;;;;11.75;10.50;;;18.60;99.90;;;;;;5095100;28;20207;-57
2021/09/13 07:13:01;;;;;;;10.48;9.43;;;18.70;99.90;;;;;;5095126;28;20206;-57
2021/09/13 07:15:29;;;;;;;14.07;11.27;;;18.80;99.90;;;;;;5094982;28;20214;-58
2021/09/13 07:17:58;;;;;;;11.43;10.30;;;18.90;99.90;;;;;;5095131;28;20303;-57
2021/09/13 07:20:26;;;;;;;13.05;11.75;;;18.90;99.90;;;;;;5094717;28;20653;-56
2021/09/13 07:22:55;;;;;;;16.42;13.23;;;18.80;99.90;;;;;;5094668;28;20815;-57
2021/09/13 07:25:23;;;;;;;11.27;10.23;;;18.70;99.90;;;;;;5094611;28;20219;-56
2021/09/13 07:27:51;;;;;;;17.45;13.63;;;18.60;99.90;;;;;;5094872;28;20200;-58
2021/09/13 07:30:23;;;;;;;13.60;12.25;;;18.60;99.90;;;;;;5094843;28;20279;-57
2021/09/13 07:32:51;;;;;;;15.38;12.85;;;18.60;99.90;;;;;;5094616;28;20287;-57
2021/09/13 07:35:19;;;;;;;12.57;11.38;;;18.60;99.90;;;;;;5094707;28;20192;-58
2021/09/13 07:37:47;;;;;;;12.63;11.00;;;18.60;99.90;;;;;;5094743;28;20303;-58
2021/09/13 07:40:17;;;;;;;14.60;12.93;;;18.70;99.90;;;;;;5094485;28;20239;-58
2021/09/13 07:42:48;;;;;;;12.55;11.23;;;18.80;99.90;;;;;;5094576;28;20224;-57
2021/09/13 07:45:16;;;;;;;13.55;12.13;;;18.80;99.90;;;;;;5094463;28;20247;-56
2021/09/13 07:47:44;;;;;;;14.65;13.02;;;19.00;99.90;;;;;;5094560;28;20200;-58
2021/09/13 07:50:12;;;;;;;13.80;11.60;;;19.00;99.90;;;;;;5093041;28;20299;-57
2021/09/13 07:52:40;;;;;;;15.48;12.68;;;19.10;99.90;;;;;;5094150;28;20200;-59
2021/09/13 07:55:08;;;;;;;14.82;12.15;;;19.10;99.90;;;;;;5094077;28;20304;-58
2021/09/13 07:57:37;;;;;;;13.65;11.35;;;19.00;99.90;;;;;;5094041;28;20210;-58
2021/09/13 08:00:06;;;;;;;13.27;11.93;;;19.00;99.90;;;;;;5094309;28;20280;-57
2021/09/13 08:02:34;;;;;;;13.05;11.52;;;19.10;99.90;;;;;;5093779;28;20228;-57
2021/09/13 08:05:03;;;;;;;15.70;11.80;;;19.10;99.90;;;;;;5093749;28;20241;-60
2021/09/13 08:07:31;;;;;;;13.82;12.43;;;19.10;99.90;;;;;;5093823;28;20342;-57
2021/09/13 08:09:58;;;;;;;14.27;12.80;;;19.10;99.90;;;;;;5093747;28;20298;-58
2021/09/13 08:12:26;;;;;;;12.27;11.00;;;19.00;99.90;;;;;;5093849;28;20295;-58
2021/09/13 08:14:55;;;;;;;13.95;12.65;;;19.00;99.90;;;;;;5094157;28;20200;-58
2021/09/13 08:17:23;;;;;;;12.82;11.60;;;19.10;99.90;;;;;;5093814;28;20656;-58
2021/09/13 08:19:51;;;;;;;14.20;12.10;;;19.20;99.90;;;;;;5093748;28;20203;-57
2021/09/13 08:22:19;;;;;;;13.05;11.73;;;19.30;99.90;;;;;;5093857;28;20196;-57
2021/09/13 08:24:48;;;;;;;13.80;12.55;;;19.40;99.90;;;;;;5093522;28;20203;-58
2021/09/13 08:27:15;;;;;;;13.70;12.30;;;19.40;99.90;;;;;;5093784;28;20291;-56
2021/09/13 08:29:43;;;;;;;10.40;9.32;;;19.50;99.90;;;;;;5093619;28;20196;-57
2021/09/13 08:32:12;;;;;;;17.17;14.07;;;19.50;99.90;;;;;;5093812;28;20617;-59
2021/09/13 08:34:40;;;;;;;13.90;12.50;;;19.50;99.90;;;;;;5093773;28;20291;-59
2021/09/13 08:37:08;;;;;;;14.65;13.15;;;19.60;99.90;;;;;;5093661;28;20290;-57
2021/09/13 08:39:36;;;;;;;14.23;12.02;;;19.70;99.90;;;;;;5093213;28;20296;-57
2021/09/13 08:42:04;;;;;;;16.60;13.13;;;19.70;99.90;;;;;;5093156;28;20739;-58
2021/09/13 08:44:33;;;;;;;15.55;12.77;;;19.70;99.90;;;;;;5093417;28;20208;-59
2021/09/13 08:47:05;;;;;;;14.00;12.63;;;19.90;99.90;;;;;;5093290;28;20266;-59
2021/09/13 08:49:36;;;;;;;14.15;12.70;;;19.90;99.90;;;;;;5093512;28;20211;-59
2021/09/13 08:52:05;;;;;;;12.10;10.82;;;19.90;99.90;;;;;;5093493;28;20190;-59
2021/09/13 08:54:37;;;;;;;13.65;11.80;;;19.90;99.90;;;;;;5093208;28;20195;-57
2021/09/13 08:57:06;;;;;;;14.18;10.07;;;19.80;99.90;;;;;;5092820;28;20227;-58
2021/09/13 08:59:35;;;;;;;13.75;10.80;;;19.90;99.90;;;;;;5093172;28;20291;-59
2021/09/13 09:02:05;;;;;;;12.40;10.95;;;20.10;99.90;;;;;;5092518;28;20295;-57
2021/09/13 09:04:55;;;;;;;16.10;11.73;;;20.20;99.90;;;;;;5093196;28;20188;-58
2021/09/13 09:07:25;;;;;;;11.27;9.25;;;20.30;99.90;;;;;;5092486;28;20224;-58
2021/09/13 09:10:09;;;;;;;10.70;9.60;;;20.40;99.90;;;;;;5092578;28;20184;-57
2021/09/13 09:12:57;;;;;;;12.43;9.43;;;20.60;99.90;;;;;;5092607;28;20589;-58
2021/09/13 09:15:25;;;;;;;12.40;11.10;;;20.70;99.90;;;;;;5092688;28;20191;-59
2021/09/13 09:17:57;;;;;;;11.43;9.02;;;20.80;99.90;;;;;;5091674;28;20207;-59
2021/09/13 09:20:28;;;;;;;11.57;10.20;;;21.00;99.90;;;;;;5093152;28;20204;-57
2021/09/13 09:23:03;;;;;;;12.18;10.27;;;21.20;99.90;;;;;;5093084;28;20274;-60
2021/09/13 09:25:35;;;;;;;10.63;9.23;;;21.20;99.90;;;;;;5092516;28;20673;-58
2021/09/13 09:28:06;;;;;;;9.38;8.45;;;21.20;99.90;;;;;;5092950;28;20208;-58
2021/09/13 09:30:38;;;;;;;11.38;9.00;;;21.00;99.90;;;;;;5093046;28;20200;-58
2021/09/13 09:33:09;;;;;;;10.57;9.38;;;21.00;99.90;;;;;;5092953;28;20200;-59
2021/09/13 09:35:47;;;;;;;10.70;9.68;;;20.90;99.90;;;;;;5092668;28;20270;-57
2021/09/13 09:38:31;;;;;;;9.25;8.43;;;21.00;99.90;;;;;;5092668;28;20221;-58
2021/09/13 09:41:05;;;;;;;8.23;7.43;;;21.50;99.90;;;;;;5092725;28;20184;-58
2021/09/13 09:43:54;;;;;;;10.48;9.02;;;21.70;99.90;;;;;;5092448;28;20642;-58
2021/09/13 09:46:23;;;;;;;10.63;9.40;;;21.70;99.90;;;;;;5092746;28;20299;-58
2021/09/13 09:49:02;;;;;;;9.98;8.57;;;21.90;99.90;;;;;;5092692;28;20234;-58
2021/09/13 09:51:33;;;;;;;9.50;8.50;;;21.70;99.90;;;;;;5092866;28;20279;-60
2021/09/13 09:54:09;;;;;;;9.55;8.68;;;21.70;99.90;;;;;;5092274;28;20278;-60
2021/09/13 09:56:38;;;;;;;10.63;9.52;;;21.60;99.90;;;;;;5092436;28;20184;-59
2021/09/13 09:59:06;;;;;;;10.20;9.20;;;21.70;99.90;;;;;;5092391;28;20723;-59
2021/09/13 10:01:37;;;;;;;10.80;9.50;;;21.50;99.90;;;;;;5092606;28;20223;-59
2021/09/13 10:04:22;;;;;;;10.10;9.25;;;21.50;99.90;;;;;;5092596;28;20191;-58
2021/09/13 10:06:53;;;;;;;10.57;9.63;;;21.60;99.90;;;;;;5091875;28;20646;-58
2021/09/13 10:09:22;;;;;;;10.63;9.52;;;21.60;99.90;;;;;;5092004;28;20206;-59
2021/09/13 10:11:52;;;;;;;10.43;9.43;;;21.60;99.90;;;;;;5092988;28;20315;-57
2021/09/13 10:14:23;;;;;;;11.75;10.65;;;21.40;99.90;;;;;;5096344;28;20244;-58
2021/09/13 10:16:52;;;;;;;9.73;8.82;;;21.20;99.90;;;;;;5096329;28;20184;-58
2021/09/13 10:19:29;;;;;;;11.73;10.55;;;21.00;99.90;;;;;;5096418;28;20211;-58
2021/09/13 10:21:59;;;;;;;9.45;8.55;;;21.10;99.90;;;;;;5096200;28;20202;-58
2021/09/13 10:24:30;;;;;;;9.60;8.77;;;21.20;99.90;;;;;;5096110;28;20284;-59
2021/09/13 10:27:02;;;;;;;9.60;8.68;;;21.40;99.90;;;;;;5095942;28;20291;-59
2021/09/13 10:29:30;;;;;;;9.63;8.75;;;21.50;99.90;;;;;;5095792;28;20623;-58
2021/09/13 10:32:04;;;;;;;9.18;8.25;;;21.60;99.90;;;;;;5095986;28;20291;-57
2021/09/13 10:34:35;;;;;;;10.73;9.63;;;21.50;99.90;;;;;;5095899;28;20202;-55
2021/09/13 10:37:07;;;;;;;10.45;9.38;;;21.50;99.90;;;;;;5096103;28;20188;-59
2021/09/13 10:40:09;;;;;;;10.35;9.32;;;21.70;99.90;;;;;;5095616;28;20188;-58
2021/09/13 10:42:40;;;;;;;8.77;7.97;;;22.20;99.90;;;;;;5033005;28;20230;-56
2021/09/13 10:45:28;;;;;;;9.65;8.73;;;22.30;99.90;;;;;;5032942;28;20273;-58
2021/09/13 10:48:06;;;;;;;10.75;9.77;;;22.50;99.90;;;;;;5071816;28;20228;-59
2021/09/13 10:50:37;;;;;;;8.80;8.10;;;22.80;99.90;;;;;;5095477;28;20738;-59
2021/09/13 10:53:32;;;;;;;10.63;9.82;;;22.80;99.90;;;;;;5095451;28;20191;-59
2021/09/13 10:56:03;;;;;;;10.98;10.07;;;22.90;99.90;;;;;;5095492;28;20215;-58
2021/09/13 10:58:42;;;;;;;11.45;10.55;;;22.90;99.90;;;;;;5095580;28;20240;-58
2021/09/13 11:01:20;;;;;;;10.15;9.35;;;23.10;99.90;;;;;;5095219;28;20184;-58
2021/09/13 11:04:03;;;;;;;9.75;8.75;;;23.20;99.90;;;;;;5095481;28;20204;-58
2021/09/13 11:06:45;;;;;;;10.45;9.30;;;23.50;99.90;;;;;;5094740;28;20255;-58
2021/09/13 11:09:22;;;;;;;8.98;8.18;;;23.70;99.90;;;;;;5094977;28;20271;-58
2021/09/13 11:11:58;;;;;;;8.70;7.90;;;23.80;99.90;;;;;;5095354;28;20188;-58
2021/09/13 11:14:28;;;;;;;9.77;8.82;;;24.00;99.90;;;;;;5094968;28;20632;-58
2021/09/13 11:16:57;;;;;;;8.68;7.85;;;23.90;99.90;;;;;;5095227;28;20192;-58
2021/09/13 11:19:27;;;;;;;8.68;7.72;;;23.80;99.90;;;;;;5095176;28;20196;-58
2021/09/13 11:21:57;;;;;;;9.27;8.35;;;23.70;99.90;;;;;;5095158;28;20295;-60
2021/09/13 11:24:29;;;;;;;7.93;7.13;;;23.60;99.90;;;;;;5094181;28;20290;-58
2021/09/13 11:26:58;;;;;;;9.02;8.10;;;23.70;99.90;;;;;;5094705;28;20215;-59
2021/09/13 11:29:28;;;;;;;9.57;8.57;;;23.70;99.90;;;;;;5094657;28;20593;-59
2021/09/13 11:31:58;;;;;;;8.88;7.40;;;23.30;99.90;;;;;;5094537;28;20295;-58
2021/09/13 11:34:29;;;;;;;9.55;8.57;;;23.00;99.90;;;;;;5094487;28;20210;-57
2021/09/13 11:37:01;;;;;;;9.88;8.00;;;22.80;99.90;;;;;;5094916;28;20544;-59
2021/09/13 11:39:32;;;;;;;8.88;6.95;;;22.60;99.90;;;;;;5094674;28;20292;-58
2021/09/13 11:42:03;;;;;;;8.90;7.50;;;22.40;99.90;;;;;;5094567;28;20187;-59
2021/09/13 11:44:37;;;;;;;8.18;6.97;;;22.40;99.90;;;;;;5094730;28;20212;-58
2021/09/13 11:47:06;;;;;;;10.70;9.35;;;22.40;99.90;;;;;;5094464;28;20303;-58
2021/09/13 11:49:35;;;;;;;9.98;8.05;;;22.40;99.90;;;;;;5094344;28;20656;-58
2021/09/13 11:52:11;;;;;;;8.85;7.50;;;22.30;99.90;;;;;;5094414;28;20196;-58
2021/09/13 11:54:46;;;;;;;8.90;7.88;;;22.20;99.90;;;;;;5094094;28;20635;-59
2021/09/13 11:57:26;;;;;;;8.18;7.38;;;22.10;99.90;;;;;;5094080;28;20275;-59
2021/09/13 11:59:55;;;;;;;9.63;6.80;;;22.00;99.90;;;;;;5094437;28;20183;-59
2021/09/13 12:02:25;;;;;;;8.15;7.00;;;22.00;99.90;;;;;;5093904;28;20286;-59
2021/09/13 12:04:54;;;;;;;7.90;7.05;;;22.40;99.90;;;;;;5094148;28;20199;-58
2021/09/13 12:07:22;;;;;;;8.07;7.28;;;22.60;99.90;;;;;;5093672;28;20234;-58
2021/09/13 12:09:52;;;;;;;8.73;7.90;;;22.70;99.90;;;;;;5094017;28;20204;-58
2021/09/13 12:12:23;;;;;;;9.90;7.85;;;22.80;99.90;;;;;;5093733;28;20275;-58
2021/09/13 12:14:53;;;;;;;9.13;8.10;;;22.90;99.90;;;;;;5094137;28;20180;-60
2021/09/13 12:17:23;;;;;;;7.72;6.55;;;22.70;99.90;;;;;;5094087;28;20180;-57
2021/09/13 12:20:11;;;;;;;7.43;6.72;;;22.70;99.90;;;;;;5093954;28;20230;-59
2021/09/13 12:22:39;;;;;;;8.73;7.82;;;22.70;99.90;;;;;;5093342;28;20187;-58
2021/09/13 12:25:14;;;;;;;8.38;7.47;;;22.70;99.90;;;;;;5093468;28;20203;-58
2021/09/13 12:27:44;;;;;;;7.80;7.10;;;22.60;99.90;;;;;;5093604;28;20207;-57
2021/09/13 12:30:22;;;;;;;8.63;6.50;;;22.50;99.90;;;;;;5093398;28;20246;-59
2021/09/13 12:32:54;;;;;;;6.90;6.25;;;22.50;99.90;;;;;;5093678;28;20358;-58
2021/09/13 12:35:34;;;;;;;7.63;6.82;;;22.90;99.90;;;;;;5092630;28;20295;-58
2021/09/13 12:38:03;;;;;;;6.63;5.93;;;23.10;99.90;;;;;;5093183;28;20267;-58
2021/09/13 12:40:32;;;;;;;7.57;6.10;;;23.30;99.90;;;;;;5093445;28;20204;-59
2021/09/13 12:43:02;;;;;;;7.22;6.53;;;23.50;99.90;;;;;;5093472;28;20202;-58
2021/09/13 12:45:32;;;;;;;7.25;6.40;;;23.80;99.90;;;;;;5093522;28;20314;-60
2021/09/13 12:48:03;;;;;;;6.45;5.80;;;23.90;99.90;;;;;;5093128;28;20233;-59